createdAt,value
2023-02-19T00:01:24.432Z,7.00
2023-02-19T00:03:52.803Z,6.85
2023-02-19T00:06:19.661Z,6.79
2023-02-19T00:08:46.424Z,7.03
2023-02-19T00:11:15.270Z,6.95
2023-02-19T00:13:43.259Z,6.79
2023-02-19T00:16:14.701Z,6.46
2023-02-19T00:18:41.630Z,6.22
2023-02-19T00:21:09.102Z,6.04
2023-02-19T00:23:36.181Z,5.27
2023-02-19T00:26:17.673Z,5.10
2023-02-19T00:28:45.275Z,4.70
2023-02-19T00:31:23.552Z,4.63
2023-02-19T00:33:52.289Z,4.45
2023-02-19T00:36:19.093Z,4.50
2023-02-19T00:38:45.915Z,4.56
2023-02-19T00:41:22.199Z,4.71
2023-02-19T00:44:02.661Z,4.58
2023-02-19T00:46:37.307Z,4.49
2023-02-19T00:49:04.911Z,4.61
2023-02-19T00:51:33.623Z,4.53
2023-02-19T00:54:00.417Z,4.83
2023-02-19T00:56:27.173Z,4.59
2023-02-19T00:58:53.895Z,4.23
2023-02-19T01:01:20.967Z,4.09
2023-02-19T01:03:47.793Z,4.25
2023-02-19T01:06:16.014Z,4.62
2023-02-19T01:08:43.015Z,5.06
2023-02-19T01:11:10.103Z,5.18
2023-02-19T01:13:37.050Z,5.26
2023-02-19T01:16:07.561Z,5.34
2023-02-19T01:18:34.457Z,5.36
2023-02-19T01:21:05.459Z,5.34
2023-02-19T01:23:32.180Z,5.58
2023-02-19T01:25:58.824Z,5.67
2023-02-19T01:28:25.418Z,5.71
2023-02-19T01:30:52.109Z,5.90
2023-02-19T01:33:18.780Z,6.03
2023-02-19T01:35:45.537Z,6.00
2023-02-19T01:38:12.204Z,6.06
2023-02-19T01:40:38.795Z,5.84
2023-02-19T01:43:06.601Z,5.78
2023-02-19T01:45:34.616Z,5.72
2023-02-19T01:48:11.864Z,5.99
2023-02-19T01:50:46.476Z,6.10
2023-02-19T01:53:13.705Z,6.31
2023-02-19T01:55:40.413Z,6.33
2023-02-19T01:58:07.084Z,6.21
2023-02-19T02:00:33.879Z,6.23
2023-02-19T02:03:00.550Z,6.29
2023-02-19T02:05:42.422Z,6.24
2023-02-19T02:08:27.624Z,6.26
2023-02-19T02:10:54.319Z,6.10
2023-02-19T02:13:21.015Z,6.35
2023-02-19T02:15:51.162Z,6.22
2023-02-19T02:18:49.114Z,6.62
2023-02-19T02:21:48.082Z,6.31
2023-02-19T02:24:20.469Z,6.51
2023-02-19T02:27:12.729Z,6.71
2023-02-19T02:29:45.507Z,6.72
2023-02-19T02:32:14.363Z,6.53
2023-02-19T02:34:54.128Z,6.19
2023-02-19T02:37:20.902Z,5.94
2023-02-19T02:39:47.590Z,6.00
2023-02-19T02:42:29.552Z,6.00
2023-02-19T02:45:15.762Z,5.81
2023-02-19T02:47:53.325Z,5.73
2023-02-19T02:50:47.262Z,5.70
2023-02-19T02:53:37.029Z,5.97
2023-02-19T02:56:03.830Z,5.75
2023-02-19T02:58:30.729Z,5.57
2023-02-19T03:01:27.773Z,5.29
2023-02-19T03:04:01.418Z,5.18
2023-02-19T03:06:29.962Z,5.03
2023-02-19T03:09:08.721Z,5.23
2023-02-19T03:12:07.666Z,5.04
2023-02-19T03:14:56.795Z,5.31
2023-02-19T03:18:06.695Z,5.52
2023-02-19T03:20:34.697Z,5.53
2023-02-19T03:23:01.412Z,5.41
2023-02-19T03:25:50.777Z,5.45
2023-02-19T03:28:18.146Z,5.19
2023-02-19T03:30:50.853Z,4.63
2023-02-19T03:33:19.858Z,4.20
2023-02-19T03:36:05.445Z,4.26
2023-02-19T03:38:44.943Z,3.92
2023-02-19T03:41:26.593Z,3.99
2023-02-19T03:43:57.999Z,4.33
2023-02-19T03:46:39.117Z,4.72
2023-02-19T03:49:15.794Z,6.27
2023-02-19T03:51:45.086Z,6.66
2023-02-19T03:54:41.537Z,7.31
2023-02-19T03:57:30.205Z,7.90
2023-02-19T04:00:27.368Z,8.17
2023-02-19T04:02:55.184Z,8.34
2023-02-19T04:05:23.237Z,8.13
2023-02-19T04:07:50.924Z,8.13
2023-02-19T04:10:17.796Z,8.09
2023-02-19T04:12:48.337Z,8.22
2023-02-19T04:15:17.757Z,8.28
2023-02-19T04:17:47.545Z,8.16
2023-02-19T04:20:14.277Z,8.12
2023-02-19T04:22:40.993Z,8.10
2023-02-19T04:25:07.896Z,8.13
2023-02-19T04:27:38.537Z,7.72
2023-02-19T04:30:06.506Z,7.53
2023-02-19T04:32:33.262Z,7.68
2023-02-19T04:34:59.906Z,7.12
2023-02-19T04:37:26.569Z,6.85
2023-02-19T04:39:53.355Z,6.54
2023-02-19T04:42:19.933Z,6.27
2023-02-19T04:44:46.575Z,6.69
2023-02-19T04:47:13.357Z,6.55
2023-02-19T04:49:40.093Z,6.06
2023-02-19T04:52:06.708Z,5.82
2023-02-19T04:54:33.509Z,6.48
2023-02-19T04:57:00.138Z,6.26
2023-02-19T04:59:26.788Z,5.62
2023-02-19T05:01:53.568Z,5.84
2023-02-19T05:04:20.220Z,5.60
2023-02-19T05:06:46.941Z,5.58
2023-02-19T05:09:13.683Z,5.11
2023-02-19T05:11:40.414Z,5.38
2023-02-19T05:14:07.149Z,5.27
2023-02-19T05:16:33.805Z,5.16
2023-02-19T05:19:00.557Z,4.87
2023-02-19T05:21:27.311Z,5.08
2023-02-19T05:23:54.150Z,4.84
2023-02-19T05:26:22.026Z,4.85
2023-02-19T05:28:50.489Z,4.86
2023-02-19T05:31:17.462Z,4.71
2023-02-19T05:33:45.719Z,4.77
2023-02-19T05:36:13.200Z,4.69
2023-02-19T05:38:40.474Z,4.64
2023-02-19T05:41:13.171Z,4.79
2023-02-19T05:43:40.192Z,4.60
2023-02-19T05:46:07.037Z,4.54
2023-02-19T05:48:33.969Z,4.55
2023-02-19T05:51:09.240Z,4.29
2023-02-19T05:53:36.276Z,4.37
